createdAt,value
2023-01-19T00:00:32.204Z,96
2023-01-19T00:01:32.085Z,96
2023-01-19T00:02:32.131Z,96
2023-01-19T00:03:32.127Z,96
2023-01-19T00:04:32.105Z,96
2023-01-19T00:05:32.073Z,96
2023-01-19T00:06:32.140Z,96
2023-01-19T00:07:32.093Z,96
2023-01-19T00:08:32.111Z,96
2023-01-19T00:09:32.069Z,96
2023-01-19T00:10:32.094Z,96
2023-01-19T00:11:32.104Z,96
2023-01-19T00:12:32.134Z,96
2023-01-19T00:13:32.084Z,96
2023-01-19T00:14:32.077Z,96
2023-01-19T00:15:32.184Z,96
2023-01-19T00:16:32.276Z,96
2023-01-19T00:17:32.104Z,96
2023-01-19T00:18:32.083Z,96
2023-01-19T00:19:32.115Z,96
2023-01-19T00:20:32.083Z,96
2023-01-19T00:21:32.077Z,96
2023-01-19T00:22:32.090Z,96
2023-01-19T00:23:32.118Z,96
2023-01-19T00:24:32.100Z,96
2023-01-19T00:25:32.110Z,96
2023-01-19T00:26:32.072Z,96
2023-01-19T00:27:32.098Z,96
2023-01-19T00:28:32.092Z,96
2023-01-19T00:29:32.074Z,95
2023-01-19T00:30:32.070Z,96
2023-01-19T00:31:32.141Z,95
2023-01-19T00:32:32.197Z,95
2023-01-19T00:33:32.073Z,95
2023-01-19T00:34:32.093Z,95
2023-01-19T00:35:32.126Z,95
2023-01-19T00:36:32.124Z,95
2023-01-19T00:37:32.061Z,95
2023-01-19T00:38:32.076Z,95
2023-01-19T00:39:32.093Z,95
2023-01-19T00:40:32.093Z,95
2023-01-19T00:41:32.072Z,95
2023-01-19T00:42:32.114Z,95
2023-01-19T00:43:32.106Z,95
2023-01-19T00:44:32.124Z,95
2023-01-19T00:45:32.086Z,95
2023-01-19T00:46:32.129Z,95
2023-01-19T00:47:32.098Z,95
2023-01-19T00:48:32.103Z,95
2023-01-19T00:49:32.107Z,95
2023-01-19T00:50:32.180Z,95
2023-01-19T00:51:32.096Z,95
2023-01-19T00:52:32.101Z,95
2023-01-19T00:53:32.075Z,95
2023-01-19T00:54:32.081Z,95
2023-01-19T00:55:32.107Z,95
2023-01-19T00:56:32.083Z,95
2023-01-19T00:57:32.064Z,95
2023-01-19T00:58:32.069Z,95
2023-01-19T00:59:32.120Z,95
2023-01-19T01:00:32.066Z,95
2023-01-19T01:01:46.057Z,95
2023-01-19T01:02:32.684Z,95
2023-01-19T01:03:32.083Z,95
2023-01-19T01:04:32.171Z,95
2023-01-19T01:05:32.077Z,95
2023-01-19T01:06:32.122Z,95
2023-01-19T01:07:32.097Z,95
2023-01-19T01:08:32.069Z,95
2023-01-19T01:09:32.075Z,95
2023-01-19T01:10:32.342Z,95
2023-01-19T01:11:32.087Z,95
2023-01-19T01:12:32.204Z,95
2023-01-19T01:13:32.540Z,95
2023-01-19T01:14:32.073Z,95
2023-01-19T01:15:32.108Z,95
2023-01-19T01:16:32.121Z,95
2023-01-19T01:17:32.096Z,95
2023-01-19T01:18:32.100Z,95
2023-01-19T01:19:32.070Z,95
2023-01-19T01:20:32.075Z,95
2023-01-19T01:21:32.114Z,95
2023-01-19T01:22:32.140Z,95
2023-01-19T01:23:32.080Z,95
2023-01-19T01:24:32.105Z,95
2023-01-19T01:25:32.109Z,95
2023-01-19T01:26:32.131Z,95
2023-01-19T01:27:32.066Z,95
2023-01-19T01:28:32.084Z,95
2023-01-19T01:29:32.115Z,95
2023-01-19T01:30:32.090Z,95
2023-01-19T01:31:32.167Z,95
2023-01-19T01:32:32.104Z,95
2023-01-19T01:33:40.905Z,95
2023-01-19T01:34:32.082Z,95
2023-01-19T01:35:32.047Z,95
2023-01-19T01:36:32.109Z,95
2023-01-19T01:37:32.163Z,95
2023-01-19T01:38:32.092Z,95
2023-01-19T01:39:32.042Z,95
2023-01-19T01:40:32.232Z,95
2023-01-19T01:41:32.356Z,95
2023-01-19T01:42:32.335Z,95
2023-01-19T01:43:32.150Z,95
2023-01-19T01:44:32.194Z,95
2023-01-19T01:45:32.435Z,95
2023-01-19T01:46:32.271Z,95
2023-01-19T01:47:32.235Z,95
2023-01-19T01:48:32.251Z,94
2023-01-19T01:49:32.359Z,94
2023-01-19T01:50:32.226Z,94
2023-01-19T01:51:32.162Z,94
2023-01-19T01:52:32.234Z,95
2023-01-19T01:53:32.230Z,95
2023-01-19T01:54:32.300Z,94
2023-01-19T01:55:32.156Z,94
2023-01-19T01:56:32.192Z,94
2023-01-19T01:57:32.090Z,94
2023-01-19T01:58:32.104Z,95
2023-01-19T01:59:32.121Z,95
2023-01-19T02:00:32.068Z,94
2023-01-19T02:01:32.236Z,94
2023-01-19T02:02:32.089Z,94
2023-01-19T02:03:32.097Z,94
2023-01-19T02:04:32.106Z,94
2023-01-19T02:05:32.113Z,95
2023-01-19T02:06:32.058Z,95
2023-01-19T02:07:32.077Z,95
2023-01-19T02:08:32.049Z,95
2023-01-19T02:09:32.094Z,95
2023-01-19T02:10:32.091Z,95
2023-01-19T02:11:32.079Z,95
2023-01-19T02:12:32.275Z,95
2023-01-19T02:13:32.109Z,95
2023-01-19T02:14:32.048Z,95
2023-01-19T02:15:32.054Z,95
2023-01-19T02:16:32.153Z,95
2023-01-19T02:17:32.093Z,95
2023-01-19T02:18:32.085Z,95
2023-01-19T02:19:32.095Z,95
2023-01-19T02:20:32.098Z,95
2023-01-19T02:21:32.102Z,95
2023-01-19T02:22:32.182Z,95
2023-01-19T02:23:32.075Z,95
2023-01-19T02:24:32.079Z,95
2023-01-19T02:25:32.115Z,95
2023-01-19T02:26:32.091Z,95
2023-01-19T02:27:32.039Z,95
2023-01-19T02:28:32.128Z,95
2023-01-19T02:29:32.078Z,95
2023-01-19T02:30:32.131Z,95
2023-01-19T02:31:32.065Z,95
2023-01-19T02:32:32.059Z,95
2023-01-19T02:33:32.112Z,95
2023-01-19T02:34:32.099Z,95
2023-01-19T02:35:32.046Z,95
2023-01-19T02:36:32.084Z,95
2023-01-19T02:37:32.109Z,95
2023-01-19T02:38:32.085Z,95
2023-01-19T02:39:32.063Z,95
2023-01-19T02:40:32.068Z,95
2023-01-19T02:41:32.096Z,95
2023-01-19T02:42:32.193Z,95
2023-01-19T02:43:32.056Z,95
2023-01-19T02:44:32.077Z,95
2023-01-19T02:45:32.080Z,95
2023-01-19T02:46:32.108Z,95
2023-01-19T02:47:32.038Z,95
2023-01-19T02:48:32.067Z,95
2023-01-19T02:49:32.068Z,95
2023-01-19T02:50:32.210Z,95
2023-01-19T02:51:32.200Z,95
2023-01-19T02:52:32.203Z,95
2023-01-19T02:53:32.096Z,95
2023-01-19T02:54:32.082Z,95
2023-01-19T02:55:32.214Z,95
2023-01-19T02:56:32.124Z,95
2023-01-19T02:57:32.074Z,95
2023-01-19T02:58:32.071Z,95
2023-01-19T02:59:32.108Z,95
2023-01-19T03:00:32.097Z,95
2023-01-19T03:01:32.180Z,95
2023-01-19T03:02:32.341Z,95
2023-01-19T03:03:32.078Z,95
2023-01-19T03:04:32.124Z,95
2023-01-19T03:05:32.056Z,95
2023-01-19T03:06:32.054Z,95
2023-01-19T03:07:32.064Z,95
2023-01-19T03:08:32.121Z,95
2023-01-19T03:09:32.075Z,95
2023-01-19T03:10:32.208Z,95
2023-01-19T03:11:32.275Z,95
2023-01-19T03:12:32.218Z,95
2023-01-19T03:13:32.235Z,95
2023-01-19T03:14:32.213Z,95
2023-01-19T03:15:32.330Z,95
2023-01-19T03:16:32.180Z,95
2023-01-19T03:17:32.079Z,95
2023-01-19T03:18:33.163Z,95
2023-01-19T03:19:32.067Z,95
2023-01-19T03:20:32.095Z,95
2023-01-19T03:21:32.147Z,95
2023-01-19T03:22:32.206Z,95
2023-01-19T03:23:32.148Z,95
2023-01-19T03:24:32.173Z,95
2023-01-19T03:25:32.152Z,95
2023-01-19T03:26:32.046Z,95
2023-01-19T03:27:32.162Z,95
2023-01-19T03:28:32.250Z,95
2023-01-19T03:29:32.091Z,95
2023-01-19T03:30:32.243Z,95
2023-01-19T03:31:32.190Z,95
2023-01-19T03:32:32.112Z,95
2023-01-19T03:33:32.198Z,95
2023-01-19T03:34:32.062Z,95
2023-01-19T03:35:32.047Z,95
2023-01-19T03:36:32.297Z,95
2023-01-19T03:37:32.168Z,95
2023-01-19T03:38:32.088Z,95
2023-01-19T03:39:32.049Z,95
2023-01-19T03:40:32.226Z,95
2023-01-19T03:41:32.205Z,95
2023-01-19T03:42:32.114Z,95
2023-01-19T03:43:32.078Z,95
2023-01-19T03:44:32.232Z,95
2023-01-19T03:45:32.183Z,95
2023-01-19T03:46:32.131Z,95
2023-01-19T03:47:32.153Z,95
2023-01-19T03:48:32.192Z,95
2023-01-19T03:49:32.067Z,95
2023-01-19T03:50:32.363Z,95
2023-01-19T03:51:32.219Z,95
2023-01-19T03:52:32.087Z,95
2023-01-19T03:53:32.108Z,95
2023-01-19T03:54:32.052Z,95
2023-01-19T03:55:32.053Z,95
2023-01-19T03:56:32.080Z,95
2023-01-19T03:57:32.075Z,95
2023-01-19T03:58:32.116Z,95
2023-01-19T03:59:32.050Z,95
2023-01-19T04:00:32.109Z,95
2023-01-19T04:01:32.157Z,95
2023-01-19T04:02:32.108Z,95
2023-01-19T04:03:32.262Z,95
2023-01-19T04:04:32.065Z,95
2023-01-19T04:05:32.032Z,95
2023-01-19T04:06:32.107Z,95
2023-01-19T04:07:32.041Z,95
2023-01-19T04:08:32.062Z,95
2023-01-19T04:09:32.081Z,95
2023-01-19T04:10:32.065Z,95
2023-01-19T04:11:32.041Z,95
2023-01-19T04:12:32.057Z,95
2023-01-19T04:13:32.107Z,95
2023-01-19T04:14:32.093Z,95
2023-01-19T04:15:32.075Z,95
2023-01-19T04:16:32.054Z,95
2023-01-19T04:17:32.032Z,95
2023-01-19T04:18:33.836Z,95
2023-01-19T04:19:32.047Z,95
2023-01-19T04:20:32.281Z,95
2023-01-19T04:21:32.042Z,95
2023-01-19T04:22:32.235Z,95
2023-01-19T04:23:32.048Z,95
2023-01-19T04:24:32.178Z,95
2023-01-19T04:25:32.065Z,95
2023-01-19T04:26:32.096Z,95
2023-01-19T04:27:32.054Z,95
2023-01-19T04:28:32.081Z,95
2023-01-19T04:29:32.135Z,95
2023-01-19T04:30:32.108Z,95
2023-01-19T04:31:32.059Z,95
2023-01-19T04:32:32.193Z,95
2023-01-19T04:33:32.059Z,95
2023-01-19T04:34:32.057Z,95
2023-01-19T04:35:32.075Z,95
2023-01-19T04:36:32.319Z,95
2023-01-19T04:37:32.064Z,95
2023-01-19T04:38:32.072Z,96
2023-01-19T04:39:32.030Z,96
2023-01-19T04:40:32.051Z,96
2023-01-19T04:41:32.046Z,96
2023-01-19T04:42:32.087Z,96
2023-01-19T04:43:32.072Z,96
2023-01-19T04:44:32.073Z,96
2023-01-19T04:45:32.133Z,96
2023-01-19T04:46:32.185Z,96
2023-01-19T04:47:32.056Z,96
2023-01-19T04:48:32.068Z,96
2023-01-19T04:49:32.065Z,96
2023-01-19T04:50:32.095Z,96
2023-01-19T04:51:32.059Z,96
2023-01-19T04:52:32.059Z,96
2023-01-19T04:53:32.073Z,96
2023-01-19T04:54:32.129Z,96
2023-01-19T04:55:32.051Z,96
2023-01-19T04:56:32.072Z,96
2023-01-19T04:57:32.046Z,96
2023-01-19T04:58:32.156Z,96
2023-01-19T04:59:32.029Z,96
2023-01-19T05:00:32.054Z,96
2023-01-19T05:01:32.281Z,96
2023-01-19T05:02:32.380Z,97
2023-01-19T05:03:32.048Z,97
2023-01-19T05:04:32.072Z,97
2023-01-19T05:05:32.046Z,97
2023-01-19T05:06:32.098Z,97
2023-01-19T05:07:32.044Z,97
2023-01-19T05:08:32.058Z,97
2023-01-19T05:09:32.028Z,97
2023-01-19T05:10:32.057Z,97
2023-01-19T05:11:32.054Z,97
2023-01-19T05:12:32.058Z,97
2023-01-19T05:13:32.069Z,97
2023-01-19T05:14:32.081Z,97
2023-01-19T05:15:32.151Z,97
2023-01-19T05:16:32.054Z,97
2023-01-19T05:17:32.064Z,97
2023-01-19T05:18:32.086Z,97
2023-01-19T05:19:32.044Z,97
2023-01-19T05:20:32.048Z,97
2023-01-19T05:21:32.046Z,97
2023-01-19T05:22:32.234Z,97
2023-01-19T05:23:32.044Z,97
2023-01-19T05:24:32.070Z,97
2023-01-19T05:25:32.054Z,97
2023-01-19T05:26:32.115Z,97
2023-01-19T05:27:32.052Z,97
2023-01-19T05:28:32.061Z,97
2023-01-19T05:29:32.047Z,97
2023-01-19T05:30:32.089Z,97
2023-01-19T05:31:32.226Z,97
2023-01-19T05:32:32.240Z,97
2023-01-19T05:33:32.035Z,97
2023-01-19T05:34:32.155Z,97
2023-01-19T05:35:36.127Z,97
2023-01-19T05:36:32.660Z,97
2023-01-19T05:37:32.064Z,97
2023-01-19T05:38:35.598Z,97
2023-01-19T05:39:32.029Z,97
2023-01-19T05:40:32.045Z,97
2023-01-19T05:41:32.055Z,97
2023-01-19T05:42:32.967Z,97
2023-01-19T05:43:32.082Z,97
2023-01-19T05:44:32.062Z,97
2023-01-19T05:45:32.059Z,97
2023-01-19T05:46:32.125Z,97
2023-01-19T05:47:32.025Z,97
2023-01-19T05:48:32.094Z,97
2023-01-19T05:49:32.066Z,97
2023-01-19T05:50:32.065Z,97
2023-01-19T05:51:32.058Z,97
2023-01-19T05:52:32.053Z,97
2023-01-19T05:53:32.060Z,97
2023-01-19T05:54:32.044Z,97
2023-01-19T05:55:32.055Z,97
2023-01-19T05:56:32.053Z,97
2023-01-19T05:57:32.020Z,97
2023-01-19T05:58:32.078Z,97
2023-01-19T05:59:32.044Z,97
2023-01-19T06:00:32.066Z,97
2023-01-19T06:01:32.042Z,97
2023-01-19T06:02:32.278Z,97
2023-01-19T06:03:32.179Z,97
2023-01-19T06:04:32.112Z,97
2023-01-19T06:05:32.040Z,97
2023-01-19T06:06:32.042Z,97
2023-01-19T06:07:32.048Z,97
2023-01-19T06:08:32.075Z,97
2023-01-19T06:09:32.049Z,97
2023-01-19T06:10:32.055Z,97
2023-01-19T06:11:32.068Z,97
2023-01-19T06:12:32.060Z,97
2023-01-19T06:13:32.009Z,97
2023-01-19T06:14:32.028Z,97
2023-01-19T06:15:32.074Z,97
2023-01-19T06:16:32.116Z,97
2023-01-19T06:17:32.039Z,97
2023-01-19T06:18:32.048Z,97
2023-01-19T06:19:32.069Z,97
2023-01-19T06:20:32.199Z,97
2023-01-19T06:21:32.041Z,97
2023-01-19T06:22:32.171Z,97
2023-01-19T06:23:32.094Z,97
2023-01-19T06:24:32.041Z,97
2023-01-19T06:25:32.050Z,97
2023-01-19T06:26:32.037Z,97
2023-01-19T06:27:32.072Z,97
2023-01-19T06:28:32.056Z,97
2023-01-19T06:29:32.043Z,97
2023-01-19T06:30:32.086Z,97
2023-01-19T06:31:32.192Z,97
2023-01-19T06:32:32.039Z,97
2023-01-19T06:33:32.031Z,97
2023-01-19T06:34:32.041Z,97
2023-01-19T06:35:32.058Z,97
2023-01-19T06:36:32.075Z,97
2023-01-19T06:37:32.043Z,97
2023-01-19T06:38:32.041Z,97
2023-01-19T06:39:32.069Z,97
2023-01-19T06:40:32.031Z,97
2023-01-19T06:41:32.029Z,97
2023-01-19T06:42:32.119Z,97
2023-01-19T06:43:32.064Z,97
2023-01-19T06:44:32.051Z,97
2023-01-19T06:45:32.112Z,97
2023-01-19T06:46:32.046Z,97
2023-01-19T06:47:32.144Z,97
2023-01-19T06:48:32.039Z,97
2023-01-19T06:49:32.018Z,97
2023-01-19T06:50:32.077Z,97
2023-01-19T06:51:32.054Z,97
2023-01-19T06:52:32.032Z,97
2023-01-19T06:53:32.031Z,97
2023-01-19T06:54:32.043Z,98
2023-01-19T06:55:32.112Z,98
2023-01-19T06:56:32.042Z,98
2023-01-19T06:57:32.026Z,98
2023-01-19T06:58:32.033Z,97
2023-01-19T06:59:32.047Z,98
2023-01-19T07:00:32.074Z,98
2023-01-19T07:01:32.087Z,97
2023-01-19T07:02:32.496Z,97
2023-01-19T07:03:32.066Z,98
2023-01-19T07:04:32.067Z,97
2023-01-19T07:05:32.187Z,98
2023-01-19T07:06:32.039Z,98
2023-01-19T07:07:32.052Z,98
2023-01-19T07:08:32.066Z,98
2023-01-19T07:09:32.023Z,97
2023-01-19T07:11:26.362Z,97
2023-01-19T07:11:33.027Z,97
2023-01-19T07:12:32.074Z,97
2023-01-19T07:13:32.052Z,98
2023-01-19T07:14:32.070Z,97
2023-01-19T07:15:32.047Z,97
2023-01-19T07:16:32.074Z,97
2023-01-19T07:17:32.056Z,97
2023-01-19T07:18:32.061Z,97
2023-01-19T07:19:32.086Z,97
2023-01-19T07:20:32.056Z,97
2023-01-19T07:21:32.041Z,97
2023-01-19T07:22:32.260Z,97
2023-01-19T07:23:32.093Z,97
2023-01-19T07:24:32.103Z,97
2023-01-19T07:25:32.059Z,97
2023-01-19T07:26:32.075Z,97
2023-01-19T07:27:32.029Z,98
2023-01-19T07:28:32.061Z,97
2023-01-19T07:29:32.033Z,98
2023-01-19T07:30:32.091Z,97
2023-01-19T07:31:32.194Z,97
2023-01-19T07:32:32.162Z,97
2023-01-19T07:33:32.035Z,97
2023-01-19T07:34:32.072Z,97
2023-01-19T07:35:32.045Z,98
2023-01-19T07:36:32.063Z,97
2023-01-19T07:37:32.055Z,98
2023-01-19T07:38:32.084Z,97
2023-01-19T07:39:32.039Z,98
2023-01-19T07:40:32.042Z,98
2023-01-19T07:41:32.059Z,97
2023-01-19T07:42:32.308Z,97
2023-01-19T07:43:32.010Z,97
2023-01-19T07:44:32.123Z,97
2023-01-19T07:45:32.052Z,97
2023-01-19T07:46:32.125Z,97
2023-01-19T07:47:32.013Z,97
2023-01-19T07:48:32.168Z,97
2023-01-19T07:49:32.081Z,97
2023-01-19T07:50:32.044Z,97
2023-01-19T07:51:32.039Z,97
2023-01-19T07:52:32.450Z,97
2023-01-19T07:53:32.053Z,97
2023-01-19T07:54:32.060Z,97
2023-01-19T07:55:32.026Z,97
2023-01-19T07:56:32.922Z,97
2023-01-19T07:57:32.053Z,97
2023-01-19T07:58:32.069Z,97
2023-01-19T07:59:32.047Z,97
2023-01-19T08:00:32.069Z,97
2023-01-19T08:01:32.141Z,97
2023-01-19T08:02:32.531Z,97
2023-01-19T08:03:32.008Z,97
2023-01-19T08:04:32.178Z,97
2023-01-19T08:05:32.018Z,97
2023-01-19T08:06:32.119Z,97
2023-01-19T08:07:32.025Z,97
2023-01-19T08:08:32.101Z,97
2023-01-19T08:09:32.048Z,97
2023-01-19T08:10:32.049Z,97
2023-01-19T08:11:32.037Z,97
2023-01-19T08:12:32.425Z,97
2023-01-19T08:13:32.100Z,97
2023-01-19T08:14:32.045Z,97
2023-01-19T08:15:32.092Z,97
2023-01-19T08:16:32.067Z,97
2023-01-19T08:17:32.022Z,97
2023-01-19T08:18:32.037Z,97
2023-01-19T08:19:32.084Z,97
2023-01-19T08:20:32.043Z,97
2023-01-19T08:21:32.104Z,97
2023-01-19T08:22:32.068Z,97
2023-01-19T08:23:32.043Z,97
2023-01-19T08:24:31.982Z,97
2023-01-19T08:25:32.071Z,97
2023-01-19T08:26:32.019Z,97
2023-01-19T08:27:32.072Z,97
2023-01-19T08:28:32.079Z,97
2023-01-19T08:29:32.101Z,97
2023-01-19T08:30:32.028Z,97
2023-01-19T08:31:32.168Z,97
2023-01-19T08:32:32.418Z,97
2023-01-19T08:33:32.062Z,97
2023-01-19T08:34:32.025Z,97
2023-01-19T08:35:32.067Z,97
2023-01-19T08:36:31.998Z,97
2023-01-19T08:37:34.151Z,97
2023-01-19T08:38:32.012Z,97
2023-01-19T08:39:32.055Z,97
2023-01-19T08:40:32.006Z,97
2023-01-19T08:41:32.034Z,97
2023-01-19T08:42:32.383Z,97
2023-01-19T08:43:33.525Z,97
2023-01-19T08:44:32.000Z,97
2023-01-19T08:45:32.045Z,97
2023-01-19T08:46:32.075Z,97
2023-01-19T08:47:32.133Z,97
2023-01-19T08:48:32.028Z,97
2023-01-19T08:49:32.016Z,97
2023-01-19T08:50:32.057Z,97
2023-01-19T08:51:32.040Z,97
2023-01-19T08:52:32.076Z,97
2023-01-19T08:53:32.067Z,97
2023-01-19T08:54:32.055Z,97
2023-01-19T08:55:32.025Z,97
2023-01-19T08:56:32.059Z,96
2023-01-19T08:57:32.057Z,96
2023-01-19T08:58:32.109Z,96
2023-01-19T08:59:32.009Z,96
2023-01-19T09:00:32.121Z,96
2023-01-19T09:01:32.281Z,96
2023-01-19T09:02:32.138Z,96
2023-01-19T09:03:32.047Z,96
2023-01-19T09:04:32.083Z,96
2023-01-19T09:05:32.092Z,96
2023-01-19T09:06:32.030Z,96
2023-01-19T09:07:33.930Z,96
2023-01-19T09:08:32.070Z,96
2023-01-19T09:09:32.011Z,96
2023-01-19T09:10:32.059Z,95
2023-01-19T09:11:32.102Z,95
2023-01-19T09:12:35.083Z,95
2023-01-19T09:13:38.810Z,95
2023-01-19T09:14:42.803Z,95
2023-01-19T09:15:46.822Z,95
2023-01-19T09:16:50.809Z,95
2023-01-19T09:17:54.759Z,95
2023-01-19T09:18:58.841Z,95
2023-01-19T09:20:02.822Z,95
2023-01-19T09:21:06.794Z,95
2023-01-19T09:22:11.751Z,95
2023-01-19T09:23:14.822Z,95
2023-01-19T09:24:18.858Z,95
2023-01-19T09:25:22.916Z,95
2023-01-19T09:26:26.837Z,95
2023-01-19T09:27:30.819Z,95
2023-01-19T09:28:32.055Z,95
2023-01-19T09:29:32.072Z,95
2023-01-19T09:30:32.071Z,95
2023-01-19T09:31:32.091Z,95
2023-01-19T09:32:32.058Z,95
2023-01-19T09:33:32.087Z,95
2023-01-19T09:34:32.076Z,95
2023-01-19T09:35:32.048Z,95
2023-01-19T09:36:32.015Z,94
2023-01-19T09:37:32.040Z,94
2023-01-19T09:38:32.048Z,94
2023-01-19T09:39:32.055Z,94
2023-01-19T09:40:32.015Z,94
2023-01-19T09:41:32.062Z,94
2023-01-19T09:42:32.460Z,94
2023-01-19T09:43:32.044Z,93
2023-01-19T09:44:32.063Z,94
2023-01-19T09:45:32.053Z,94
2023-01-19T09:46:32.168Z,93
2023-01-19T09:47:32.031Z,93
2023-01-19T09:48:32.042Z,93
2023-01-19T09:49:32.051Z,93
2023-01-19T09:50:32.036Z,93
2023-01-19T09:51:32.047Z,93
2023-01-19T09:52:32.270Z,93
2023-01-19T09:53:32.336Z,93
2023-01-19T09:54:42.914Z,93
2023-01-19T09:55:46.810Z,93
2023-01-19T09:56:52.632Z,93
2023-01-19T09:57:54.864Z,93
2023-01-19T09:58:58.849Z,93
2023-01-19T10:00:02.850Z,93
2023-01-19T10:01:07.180Z,93
2023-01-19T10:02:10.806Z,93
2023-01-19T10:03:15.691Z,93
2023-01-19T10:04:18.809Z,93
2023-01-19T10:05:22.786Z,93
2023-01-19T10:06:26.804Z,93
2023-01-19T10:07:31.864Z,93
2023-01-19T10:08:32.147Z,93
2023-01-19T10:09:32.052Z,93
2023-01-19T10:10:32.055Z,92
2023-01-19T10:11:41.845Z,92
2023-01-19T10:12:31.998Z,92
2023-01-19T10:13:32.048Z,92
2023-01-19T10:14:32.064Z,92
2023-01-19T10:15:32.074Z,92
2023-01-19T10:16:32.027Z,92
2023-01-19T10:17:32.021Z,92
2023-01-19T10:18:32.046Z,92
2023-01-19T10:19:32.053Z,92
2023-01-19T10:20:32.020Z,92
2023-01-19T10:21:32.105Z,92
2023-01-19T10:22:32.465Z,92
2023-01-19T10:23:32.022Z,92
2023-01-19T10:24:32.097Z,92
2023-01-19T10:25:32.135Z,92
2023-01-19T10:26:32.072Z,92
2023-01-19T10:27:32.038Z,92
2023-01-19T10:28:32.061Z,92
2023-01-19T10:29:32.029Z,92
2023-01-19T10:30:32.020Z,92
2023-01-19T10:31:32.085Z,92
2023-01-19T10:32:32.401Z,92
2023-01-19T10:33:32.140Z,92
2023-01-19T10:34:32.072Z,92
2023-01-19T10:35:32.031Z,91
2023-01-19T10:36:32.011Z,92
2023-01-19T10:37:32.028Z,91
2023-01-19T10:38:32.079Z,91
2023-01-19T10:39:35.782Z,91
2023-01-19T10:40:32.023Z,91
2023-01-19T10:41:32.044Z,91
2023-01-19T10:42:32.436Z,91
2023-01-19T10:43:32.003Z,91
2023-01-19T10:44:32.037Z,91
2023-01-19T10:45:32.138Z,91
2023-01-19T10:46:32.038Z,91
2023-01-19T10:47:32.080Z,91
2023-01-19T10:48:32.163Z,91
2023-01-19T10:49:32.025Z,91
2023-01-19T10:50:32.062Z,91
2023-01-19T10:51:32.036Z,91
2023-01-19T10:52:32.195Z,91
2023-01-19T10:53:32.062Z,91
2023-01-19T10:54:32.011Z,90
2023-01-19T10:55:32.032Z,90
2023-01-19T10:56:32.028Z,90
2023-01-19T10:57:32.049Z,90
2023-01-19T10:58:32.003Z,90
2023-01-19T10:59:31.982Z,90
2023-01-19T11:00:32.078Z,90
2023-01-19T11:01:32.134Z,90
2023-01-19T11:02:32.199Z,90
2023-01-19T11:03:32.073Z,90
2023-01-19T11:04:32.002Z,90
2023-01-19T11:05:32.005Z,90
2023-01-19T11:06:32.439Z,90
2023-01-19T11:07:32.035Z,90
2023-01-19T11:08:32.035Z,90
2023-01-19T11:09:32.059Z,90
2023-01-19T11:10:32.051Z,90
2023-01-19T11:11:32.096Z,90
2023-01-19T11:12:32.047Z,90
2023-01-19T11:13:32.084Z,90
2023-01-19T11:14:32.036Z,90
2023-01-19T11:15:32.012Z,90
2023-01-19T11:16:32.141Z,90
2023-01-19T11:17:31.999Z,90
2023-01-19T11:18:32.061Z,90
2023-01-19T11:19:32.016Z,90
2023-01-19T11:20:32.022Z,89
2023-01-19T11:21:31.989Z,90
2023-01-19T11:22:32.059Z,89
2023-01-19T11:23:32.017Z,89
2023-01-19T11:24:32.037Z,89
2023-01-19T11:25:32.032Z,89
2023-01-19T11:26:32.045Z,89
2023-01-19T11:27:32.034Z,89
2023-01-19T11:28:32.006Z,89
2023-01-19T11:29:32.010Z,89
2023-01-19T11:30:32.060Z,88
2023-01-19T11:31:32.065Z,88
2023-01-19T11:32:32.477Z,88
2023-01-19T11:33:32.008Z,88
2023-01-19T11:34:32.031Z,88
2023-01-19T11:35:31.995Z,87
2023-01-19T11:36:32.029Z,88
2023-01-19T11:37:32.007Z,87
2023-01-19T11:38:32.051Z,87
2023-01-19T11:39:31.992Z,87
2023-01-19T11:40:32.052Z,87
2023-01-19T11:41:32.037Z,87
2023-01-19T11:42:32.202Z,87
2023-01-19T11:43:47.833Z,87
2023-01-19T11:44:32.077Z,87
2023-01-19T11:45:32.012Z,87
2023-01-19T11:46:32.034Z,87
2023-01-19T11:47:32.031Z,87
2023-01-19T11:48:32.017Z,87
2023-01-19T11:49:32.076Z,87
2023-01-19T11:50:32.009Z,87
2023-01-19T11:51:31.993Z,87
2023-01-19T11:52:32.280Z,87
2023-01-19T11:53:32.018Z,87
2023-01-19T11:54:32.036Z,87
2023-01-19T11:55:32.011Z,87
2023-01-19T11:56:32.031Z,87
2023-01-19T11:57:32.061Z,87
2023-01-19T11:58:32.027Z,87
2023-01-19T11:59:32.000Z,87
2023-01-19T12:00:32.524Z,87
2023-01-19T12:01:32.002Z,87
2023-01-19T12:02:32.381Z,87
2023-01-19T12:03:32.063Z,86
2023-01-19T12:04:32.107Z,86
2023-01-19T12:05:31.981Z,87
2023-01-19T12:06:32.040Z,87
2023-01-19T12:07:32.053Z,87
2023-01-19T12:08:32.033Z,87
2023-01-19T12:09:31.995Z,87
2023-01-19T12:10:31.994Z,87
2023-01-19T12:11:32.026Z,87
2023-01-19T12:12:32.363Z,87
2023-01-19T12:13:32.013Z,87
2023-01-19T12:14:32.052Z,87
2023-01-19T12:15:32.021Z,88
2023-01-19T12:16:32.040Z,88
2023-01-19T12:17:32.028Z,88
2023-01-19T12:18:32.025Z,87
2023-01-19T12:19:32.022Z,87
2023-01-19T12:20:32.016Z,87
2023-01-19T12:21:32.030Z,87
2023-01-19T12:22:32.024Z,88
2023-01-19T12:23:32.037Z,88
2023-01-19T12:24:32.057Z,88
2023-01-19T12:25:31.994Z,88
2023-01-19T12:26:31.995Z,88
2023-01-19T12:27:32.544Z,88
2023-01-19T12:28:32.032Z,87
2023-01-19T12:29:31.984Z,87
2023-01-19T12:30:32.040Z,87
2023-01-19T12:31:32.146Z,87
2023-01-19T12:32:32.004Z,87
2023-01-19T12:33:31.997Z,87
2023-01-19T12:34:31.995Z,87
2023-01-19T12:35:32.034Z,87
2023-01-19T12:36:31.995Z,87
2023-01-19T12:37:32.006Z,87
2023-01-19T12:38:31.994Z,87
2023-01-19T12:39:32.047Z,87
2023-01-19T12:40:32.012Z,87
2023-01-19T12:41:32.009Z,87
2023-01-19T12:42:32.371Z,87
2023-01-19T12:43:31.977Z,87
2023-01-19T12:44:32.008Z,87
2023-01-19T12:45:32.021Z,87
2023-01-19T12:46:32.135Z,87
2023-01-19T12:47:32.020Z,87
2023-01-19T12:48:32.048Z,87
2023-01-19T12:49:32.089Z,87
2023-01-19T12:50:32.063Z,87
2023-01-19T12:51:32.017Z,87
2023-01-19T12:52:32.275Z,87
2023-01-19T12:53:32.116Z,87
2023-01-19T12:54:31.995Z,87
2023-01-19T12:55:32.041Z,87
2023-01-19T12:56:32.018Z,87
2023-01-19T12:57:32.029Z,86
2023-01-19T12:58:32.044Z,86
2023-01-19T12:59:31.973Z,86
2023-01-19T13:00:32.014Z,86
2023-01-19T13:01:32.128Z,87
2023-01-19T13:02:32.419Z,86
2023-01-19T13:03:31.992Z,87
2023-01-19T13:04:32.039Z,86
2023-01-19T13:05:33.298Z,86
2023-01-19T13:06:31.990Z,86
2023-01-19T13:07:31.996Z,86
2023-01-19T13:08:32.015Z,86
2023-01-19T13:09:32.036Z,86
2023-01-19T13:10:32.012Z,86
2023-01-19T13:11:34.552Z,86
2023-01-19T13:12:32.384Z,86
2023-01-19T13:13:31.983Z,86
2023-01-19T13:14:32.018Z,86
2023-01-19T13:15:32.046Z,86
2023-01-19T13:16:32.026Z,86
2023-01-19T13:17:31.990Z,86
2023-01-19T13:18:32.064Z,86
2023-01-19T13:19:32.009Z,86
2023-01-19T13:20:31.961Z,86
2023-01-19T13:21:32.085Z,86
2023-01-19T13:22:32.384Z,86
2023-01-19T13:23:32.077Z,86
2023-01-19T13:24:31.993Z,86
2023-01-19T13:25:31.997Z,86
2023-01-19T13:26:32.005Z,86
2023-01-19T13:27:32.009Z,86
2023-01-19T13:28:31.993Z,86
2023-01-19T13:29:32.012Z,86
2023-01-19T13:30:31.997Z,86
2023-01-19T13:31:32.103Z,86
2023-01-19T13:32:32.410Z,86
2023-01-19T13:33:31.994Z,86
2023-01-19T13:34:31.978Z,87
2023-01-19T13:35:32.024Z,86
2023-01-19T13:36:32.007Z,86
2023-01-19T13:37:31.983Z,86
2023-01-19T13:38:31.985Z,86
2023-01-19T13:39:32.016Z,86
2023-01-19T13:40:32.266Z,86
2023-01-19T13:41:32.040Z,86
2023-01-19T13:42:32.203Z,86
2023-01-19T13:43:32.011Z,87
2023-01-19T13:44:32.015Z,86
2023-01-19T13:45:32.029Z,86
2023-01-19T13:46:32.054Z,86
2023-01-19T13:47:32.007Z,86
2023-01-19T13:48:32.056Z,86
2023-01-19T13:49:31.981Z,87
2023-01-19T13:50:32.024Z,87
2023-01-19T13:51:32.016Z,86
2023-01-19T13:52:32.131Z,86
2023-01-19T13:53:32.055Z,86
2023-01-19T13:54:31.994Z,87
2023-01-19T13:55:32.034Z,87
2023-01-19T13:56:32.003Z,87
2023-01-19T13:57:31.977Z,87
2023-01-19T13:58:32.007Z,87
2023-01-19T13:59:31.967Z,87
2023-01-19T14:00:32.296Z,87
2023-01-19T14:01:32.233Z,87
2023-01-19T14:02:32.094Z,87
2023-01-19T14:03:32.029Z,87
2023-01-19T14:04:32.038Z,87
2023-01-19T14:05:31.993Z,87
2023-01-19T14:06:32.139Z,87
2023-01-19T14:07:32.064Z,87
2023-01-19T14:08:32.051Z,87
2023-01-19T14:09:32.006Z,87
2023-01-19T14:10:32.013Z,88
2023-01-19T14:11:31.993Z,88
2023-01-19T14:12:32.064Z,88
2023-01-19T14:13:31.983Z,88
2023-01-19T14:14:31.999Z,88
2023-01-19T14:15:32.002Z,88
2023-01-19T14:16:32.114Z,88
2023-01-19T14:17:31.978Z,88